Airfield :
LOGIN :

Register | Disclaimer

   EN    FR    IT 

 










Legend :    VFR   Marginal VFR   IFR   Intensive IFR   Very Intensive IFR
Visi :
Ceiling :
>= 8 km
>= 3000ft
5 to 8 km
1000 to 3000 ft
1500m to 5 km
500 to 1000 ft
800 to 1500m
200 to 500 ft
< 800m
< 200 ft
Symbols :   Thunderstorms  Fog  Heavy snow  Heavy precipitations  Wind > 20 kt
SIGMETs :     Misc.  Thunderstorms  Icing  Turbulence  Mountain Waves  Volcanic Ashes







- Airport Elevation : 1504 ft
- IATA code : PNA


LEPP - Noain Pamplona

CURRENT METAR :
  • 222330Z AUTO 32009KT 290V350 CAVOK 19/16 Q1022

EXPIRED METARs :
  • 222300Z AUTO 32008KT 290V350 9999 FEW015/// 19/16 Q1022
  • 222230Z AUTO 32009KT 290V350 CAVOK 19/16 Q1022
  • 222200Z 32008KT 9999 FEW017 19/16 Q1022
  • 222130Z 32008KT 290V350 9999 FEW017 19/16 Q1021
  • 222100Z 32008KT 9999 FEW017 20/16 Q1021

TAF TAF LEPP
Valid from the 22 at 21:00 until the 23 at 21:00 UTC


222000Z 2221/2321 34009KT CAVOK TX29/2313Z TN16/2304Z
TEMPO 2312/2321 34015G27KT
No reported NOTAMs for that airfield.



MET'MAP, your aeronautical weather chart ! - Copyright ORBIFLY December 2007 - Disclaimer

ORBIFLY MET'MAP TEAM :

Programming & Development : Alexandra Zaïnal
Concept & Development : Baudouin d'Aumeries
Co-Development & Prog : Marc-Olivier Méhu
Technical & hardware support : Manuel Goepfert

Contact : metmap@orbifly.com




SOURCES & CREDITS :

   NOAA